createdAt,value
2019-04-20T00:02:31.923Z,10.13
2019-04-20T00:05:19.683Z,9.53
2019-04-20T00:08:13.619Z,8.50
2019-04-20T00:11:07.424Z,9.87
2019-04-20T00:13:57.236Z,8.97
2019-04-20T00:16:35.984Z,8.00
2019-04-20T00:19:32.223Z,7.77
2019-04-20T00:25:42.944Z,7.77
2019-04-20T00:28:35.259Z,6.30
2019-04-20T00:31:16.346Z,9.73
2019-04-20T00:33:52.867Z,10.83
2019-04-20T00:36:26.265Z,7.53
2019-04-20T00:39:11.450Z,6.43
2019-04-20T00:41:56.070Z,10.63
2019-04-20T00:44:38.125Z,7.23
2019-04-20T00:47:30.467Z,9.20
2019-04-20T00:50:15.149Z,5.50
2019-04-20T00:52:55.269Z,11.90
2019-04-20T00:55:25.510Z,7.50
2019-04-20T00:58:17.361Z,7.90
2019-04-20T01:01:07.296Z,6.63
2019-04-20T01:03:47.404Z,6.43
2019-04-20T01:06:31.546Z,7.10
2019-04-20T01:09:18.211Z,7.77
2019-04-20T01:12:05.155Z,7.37
2019-04-20T01:14:48.733Z,9.53
2019-04-20T01:17:24.676Z,8.40
2019-04-20T01:20:05.110Z,6.67
2019-04-20T01:22:52.143Z,8.97
2019-04-20T01:25:34.970Z,8.00
2019-04-20T01:28:27.833Z,9.57
2019-04-20T01:31:08.860Z,9.27
2019-04-20T01:33:47.040Z,6.97
2019-04-20T01:36:36.950Z,6.10
2019-04-20T01:39:13.610Z,5.87
2019-04-20T01:41:43.623Z,7.70
2019-04-20T01:44:30.321Z,6.77
2019-04-20T01:47:08.713Z,5.90
2019-04-20T01:49:58.567Z,8.47
2019-04-20T01:52:47.055Z,6.77
2019-04-20T01:55:33.306Z,6.17
2019-04-20T01:58:37.684Z,6.43
2019-04-20T02:01:10.602Z,7.80
2019-04-20T02:03:51.779Z,7.13
2019-04-20T02:06:39.968Z,10.67
2019-04-20T02:09:20.301Z,9.53
2019-04-20T02:12:06.964Z,7.37
2019-04-20T02:14:47.889Z,7.07
2019-04-20T02:17:31.240Z,7.50
2019-04-20T02:20:23.184Z,5.40
2019-04-20T02:22:58.983Z,6.23
2019-04-20T02:25:16.311Z,6.53
2019-04-20T02:28:22.837Z,9.50
2019-04-20T02:31:34.339Z,7.97
2019-04-20T02:34:40.268Z,8.93
2019-04-20T02:37:59.834Z,7.60
2019-04-20T02:40:46.746Z,5.70
2019-04-20T02:43:25.371Z,6.50
2019-04-20T02:46:12.314Z,6.23
2019-04-20T02:49:10.261Z,13.07
2019-04-20T02:51:47.534Z,6.47
2019-04-20T03:02:18.428Z,7.53
2019-04-20T03:05:00.067Z,21.37
2019-04-20T03:07:50.868Z,6.77
2019-04-20T03:10:44.852Z,6.30
2019-04-20T03:13:14.405Z,6.23
2019-04-20T03:15:56.515Z,7.67
2019-04-20T03:18:35.026Z,5.20
2019-04-20T03:21:24.794Z,6.60
2019-04-20T03:23:59.657Z,6.90
2019-04-20T03:26:59.842Z,8.00
2019-04-20T03:33:12.665Z,6.30
2019-04-20T03:35:58.666Z,7.40
2019-04-20T03:38:36.308Z,6.33
2019-04-20T03:41:18.364Z,7.73
2019-04-20T03:43:49.910Z,8.40
2019-04-20T03:46:39.612Z,6.53
2019-04-20T03:49:38.015Z,6.20
2019-04-20T03:55:26.387Z,7.03
2019-04-20T03:58:17.139Z,7.07
2019-04-20T04:00:54.551Z,6.73
2019-04-20T04:04:05.215Z,9.30
2019-04-20T04:06:28.524Z,6.70
2019-04-20T04:09:17.235Z,6.67
2019-04-20T04:11:52.559Z,8.63
2019-04-20T04:14:26.065Z,7.97
2019-04-20T04:17:21.328Z,6.63
2019-04-20T04:20:33.006Z,7.50
2019-04-20T04:23:33.875Z,8.97
2019-04-20T04:26:22.337Z,7.07
2019-04-20T04:29:08.567Z,7.33
2019-04-20T04:31:57.710Z,8.43
2019-04-20T04:34:30.699Z,8.43
2019-04-20T04:37:13.178Z,7.93
2019-04-20T04:39:54.213Z,8.80
2019-04-20T04:42:42.570Z,7.30
2019-04-20T04:45:04.880Z,6.87
2019-04-20T04:47:42.883Z,8.10
2019-04-20T04:50:27.880Z,6.67
2019-04-20T04:53:17.176Z,8.20
2019-04-20T04:55:56.491Z,10.83
2019-04-20T04:58:33.922Z,9.33
2019-04-20T05:01:20.604Z,7.67
2019-04-20T05:04:32.071Z,6.37
2019-04-20T05:06:53.692Z,8.13
2019-04-20T05:09:23.829Z,6.90
2019-04-20T05:12:11.828Z,7.30
2019-04-20T05:14:58.967Z,8.53
2019-04-20T05:17:50.242Z,6.73
2019-04-20T05:20:30.718Z,4.47
2019-04-20T05:23:15.386Z,6.87
2019-04-20T05:26:07.365Z,6.83
2019-04-20T05:28:42.106Z,10.83
2019-04-20T05:31:13.023Z,6.27
2019-04-20T05:36:57.537Z,8.70
2019-04-20T05:39:38.438Z,7.57
2019-04-20T05:42:23.402Z,8.43
2019-04-20T05:45:01.422Z,7.80
2019-04-20T05:47:43.046Z,7.10
2019-04-20T05:50:32.763Z,8.77
2019-04-20T05:53:14.516Z,7.13
2019-04-20T05:55:49.244Z,8.07
2019-04-20T05:58:45.355Z,7.13
2019-04-20T06:01:36.338Z,9.50
2019-04-20T06:04:28.690Z,9.27
2019-04-20T06:07:16.800Z,2.60
2019-04-20T06:10:05.815Z,2.97
2019-04-20T06:16:12.880Z,7.73
2019-04-20T06:19:24.108Z,10.03
2019-04-20T06:25:33.472Z,4.57
2019-04-20T06:28:02.404Z,3.63
2019-04-20T06:30:51.184Z,8.60
2019-04-20T06:39:49.110Z,5.23
2019-04-20T06:42:31.830Z,4.10
2019-04-20T06:45:20.187Z,7.13
2019-04-20T06:48:08.757Z,8.17
2019-04-20T06:50:44.437Z,8.47
2019-04-20T06:53:39.039Z,4.43
2019-04-20T06:56:15.535Z,3.70
2019-04-20T06:59:03.746Z,5.43
2019-04-20T07:01:52.430Z,2.53
2019-04-20T07:07:11.346Z,8.87
2019-04-20T07:10:06.483Z,7.33
2019-04-20T07:12:32.770Z,10.90
2019-04-20T07:15:16.303Z,3.40
2019-04-20T07:18:06.485Z,2.40
2019-04-20T07:21:04.251Z,2.30
2019-04-20T07:23:47.978Z,4.77
2019-04-20T07:26:35.302Z,8.40
2019-04-20T07:29:10.370Z,1.97
2019-04-20T07:31:48.720Z,7.20
2019-04-20T07:34:35.742Z,4.73
2019-04-20T07:39:58.897Z,2.23
2019-04-20T07:42:46.741Z,2.33
2019-04-20T07:45:30.825Z,5.03
2019-04-20T07:48:11.313Z,2.40
2019-04-20T07:50:44.892Z,2.20
2019-04-20T07:53:32.128Z,8.20
2019-04-20T07:56:16.330Z,2.37
2019-04-20T07:58:47.902Z,3.03
2019-04-20T08:01:53.680Z,7.30
2019-04-20T08:07:17.530Z,2.50
2019-04-20T08:10:02.908Z,2.50
2019-04-20T08:21:23.310Z,7.37
2019-04-20T08:24:07.361Z,6.43
2019-04-20T08:30:21.592Z,5.83
2019-04-20T08:36:16.801Z,8.33
2019-04-20T08:41:56.339Z,7.50
2019-04-20T08:47:56.777Z,7.47
2019-04-20T08:50:27.764Z,10.07
2019-04-20T08:53:23.171Z,9.40
2019-04-20T08:55:59.105Z,8.47
2019-04-20T09:01:42.751Z,9.30
2019-04-20T09:04:37.121Z,6.87
2019-04-20T09:07:15.252Z,4.20
2019-04-20T09:10:22.509Z,7.23
2019-04-20T09:12:50.642Z,7.80
2019-04-20T09:15:16.830Z,8.07
2019-04-20T09:18:09.081Z,11.37
2019-04-20T09:20:53.845Z,7.40
2019-04-20T09:23:42.436Z,6.20
2019-04-20T09:26:29.358Z,12.83
2019-04-20T09:29:02.993Z,10.20
2019-04-20T09:31:52.077Z,5.97
2019-04-20T09:34:42.608Z,7.53
2019-04-20T09:37:27.931Z,4.77
2019-04-20T09:40:30.823Z,5.30
2019-04-20T09:42:54.327Z,10.30
2019-04-20T09:45:40.980Z,7.43
2019-04-20T09:48:29.785Z,7.37
2019-04-20T09:51:20.282Z,8.23
2019-04-20T09:53:56.130Z,7.43
2019-04-20T09:56:41.915Z,8.30
2019-04-20T09:59:28.407Z,9.40
2019-04-20T10:02:04.756Z,7.40
2019-04-20T10:04:35.581Z,7.53
2019-04-20T10:07:19.986Z,6.83
2019-04-20T10:09:59.941Z,6.53
2019-04-20T10:12:41.859Z,11.77
2019-04-20T10:15:26.150Z,9.47
2019-04-20T10:18:06.090Z,8.67
2019-04-20T10:20:47.436Z,10.80
2019-04-20T10:23:28.420Z,11.10
2019-04-20T10:25:56.851Z,6.93
2019-04-20T10:28:45.608Z,4.77
2019-04-20T10:31:37.648Z,5.87
2019-04-20T10:34:24.207Z,8.80
2019-04-20T10:40:39.085Z,7.70
2019-04-20T10:43:12.146Z,7.13
2019-04-20T10:46:02.635Z,10.03
2019-04-20T10:48:53.138Z,8.90
2019-04-20T10:51:41.806Z,8.30
2019-04-20T10:54:30.546Z,6.53
2019-04-20T10:57:10.817Z,8.33
2019-04-20T10:59:52.133Z,9.30
2019-04-20T11:02:34.981Z,3.67
2019-04-20T11:05:15.165Z,6.73
2019-04-20T11:07:56.804Z,9.63
2019-04-20T11:10:51.111Z,6.63
2019-04-20T11:13:21.463Z,2.67
2019-04-20T11:16:02.206Z,2.27
2019-04-20T11:18:43.255Z,7.77
2019-04-20T11:21:24.676Z,2.37
2019-04-20T11:24:06.254Z,4.97
2019-04-20T11:26:47.161Z,3.60
2019-04-20T11:29:28.483Z,5.50
2019-04-20T11:32:10.338Z,4.47
2019-04-20T11:34:53.224Z,8.83
2019-04-20T11:37:35.106Z,8.13
2019-04-20T11:40:15.376Z,6.30
2019-04-20T11:42:57.423Z,7.33
2019-04-20T11:45:38.523Z,6.50
2019-04-20T11:48:19.732Z,4.83
2019-04-20T11:51:01.406Z,9.40
2019-04-20T11:53:42.656Z,12.57
2019-04-20T11:56:28.023Z,9.13
2019-04-20T11:59:07.245Z,10.80
2019-04-20T12:01:56.541Z,2.53
2019-04-20T12:04:44.170Z,7.03
2019-04-20T12:07:19.552Z,5.30
2019-04-20T12:10:08.114Z,8.83
2019-04-20T12:12:47.744Z,4.50
2019-04-20T12:15:26.632Z,5.30
2019-04-20T12:18:07.578Z,6.67
2019-04-20T12:20:48.110Z,3.40
2019-04-20T12:23:28.848Z,4.90
2019-04-20T12:26:10.817Z,3.57
2019-04-20T12:28:51.649Z,3.50
2019-04-20T12:31:33.511Z,2.57
2019-04-20T12:34:14.333Z,4.73
2019-04-20T12:36:55.290Z,6.30
2019-04-20T12:39:35.709Z,6.37
2019-04-20T12:42:17.031Z,3.77
2019-04-20T12:44:57.789Z,5.47
2019-04-20T12:47:37.488Z,3.97
2019-04-20T12:50:25.664Z,9.83
2019-04-20T12:53:14.891Z,5.83
2019-04-20T12:56:02.739Z,7.17
2019-04-20T12:58:51.659Z,5.90
2019-04-20T13:01:41.517Z,21.70
2019-04-20T13:04:30.207Z,12.67
2019-04-20T13:07:19.822Z,12.97
2019-04-20T13:10:29.578Z,5.87
2019-04-20T13:13:38.597Z,5.70
2019-04-20T13:16:48.647Z,11.27
2019-04-20T13:19:35.855Z,6.20
2019-04-20T13:22:25.401Z,8.07
2019-04-20T13:25:14.908Z,3.43
2019-04-20T13:28:03.277Z,21.63
2019-04-20T13:30:53.616Z,11.83
2019-04-20T13:33:43.246Z,12.10
2019-04-20T13:36:32.536Z,13.63
2019-04-20T13:39:22.654Z,10.83
2019-04-20T13:42:18.679Z,4.50
2019-04-20T13:45:01.134Z,5.67
2019-04-20T13:47:43.216Z,4.33
2019-04-20T13:50:24.083Z,10.67
2019-04-20T13:53:05.458Z,10.83
2019-04-20T13:55:46.537Z,4.00
2019-04-20T13:58:49.594Z,5.70
2019-04-20T14:04:39.055Z,11.03
2019-04-20T14:07:20.805Z,6.83
2019-04-20T14:10:03.733Z,3.57
2019-04-20T14:12:55.190Z,5.10
2019-04-20T14:15:28.994Z,7.93
2019-04-20T14:18:11.153Z,10.40
2019-04-20T14:20:58.342Z,12.00
2019-04-20T14:23:41.054Z,7.77
2019-04-20T14:26:22.942Z,7.60
2019-04-20T14:29:03.285Z,6.97
2019-04-20T14:31:44.066Z,6.63
2019-04-20T14:34:25.126Z,8.77
2019-04-20T14:37:06.932Z,5.87
2019-04-20T14:39:48.072Z,14.47
2019-04-20T14:42:38.554Z,19.23
2019-04-20T14:45:11.252Z,6.83
2019-04-20T14:47:52.309Z,6.03
2019-04-20T14:50:33.847Z,6.20
2019-04-20T14:53:17.711Z,4.40
2019-04-20T14:55:59.684Z,8.87
2019-04-20T14:58:59.736Z,3.60
2019-04-20T15:01:42.791Z,3.13
2019-04-20T15:04:26.719Z,5.60
2019-04-20T15:07:06.807Z,5.93
2019-04-20T15:09:47.145Z,5.47
2019-04-20T15:12:38.950Z,5.20
2019-04-20T15:15:10.637Z,4.53
2019-04-20T15:17:53.478Z,5.77
2019-04-20T15:20:37.329Z,4.00
2019-04-20T15:23:19.677Z,3.37
2019-04-20T15:26:00.520Z,3.00
2019-04-20T15:28:42.127Z,4.07
2019-04-20T15:31:24.413Z,4.73
2019-04-20T15:34:06.898Z,5.27
2019-04-20T15:36:47.545Z,7.07
2019-04-20T15:39:29.386Z,7.37
2019-04-20T15:42:11.638Z,5.93
2019-04-20T15:44:53.279Z,7.07
2019-04-20T15:47:35.865Z,4.70
2019-04-20T15:50:18.058Z,5.43
2019-04-20T15:53:00.784Z,6.87
2019-04-20T15:55:43.894Z,4.13
2019-04-20T15:58:23.737Z,6.33
2019-04-20T16:01:06.186Z,5.73
2019-04-20T16:03:48.916Z,5.70
2019-04-20T16:06:31.531Z,4.87
2019-04-20T16:09:12.649Z,4.83
2019-04-20T16:11:54.971Z,6.27
2019-04-20T16:14:35.959Z,6.17
2019-04-20T16:17:08.658Z,4.37
2019-04-20T16:20:03.883Z,6.17
2019-04-20T16:22:45.078Z,3.93
2019-04-20T16:28:27.935Z,7.10
2019-04-20T16:31:18.198Z,9.37
2019-04-20T16:34:07.700Z,5.90
2019-04-20T16:36:38.877Z,4.87
2019-04-20T16:39:28.307Z,5.80
2019-04-20T16:44:53.474Z,7.27
2019-04-20T16:47:42.150Z,7.67
2019-04-20T16:50:31.353Z,7.30
2019-04-20T16:53:19.280Z,9.77
2019-04-20T16:56:08.544Z,8.73
2019-04-20T16:59:02.355Z,8.97
2019-04-20T17:01:46.615Z,8.90
2019-04-20T17:04:35.806Z,6.50
2019-04-20T17:07:57.260Z,7.60
2019-04-20T17:10:32.750Z,12.63
2019-04-20T17:13:28.416Z,10.07
2019-04-20T17:15:57.968Z,7.27
2019-04-20T17:18:39.323Z,8.17
2019-04-20T17:21:25.279Z,10.37
2019-04-20T17:24:07.059Z,8.20
2019-04-20T17:26:48.641Z,7.03
2019-04-20T17:29:31.551Z,8.53
2019-04-20T17:32:15.819Z,8.60
2019-04-20T17:35:09.102Z,7.87
2019-04-20T17:37:43.156Z,8.40
2019-04-20T17:40:41.127Z,7.50
2019-04-20T17:43:20.097Z,9.37
2019-04-20T17:46:02.208Z,11.33
2019-04-20T17:48:45.071Z,9.10
2019-04-20T17:51:39.658Z,10.13
2019-04-20T17:56:42.812Z,15.50
2019-04-20T17:59:24.307Z,10.47
2019-04-20T18:02:45.988Z,8.80
2019-04-20T18:05:36.709Z,14.93
2019-04-20T18:08:15.428Z,10.23
2019-04-20T18:10:50.728Z,9.93
2019-04-20T18:13:24.043Z,16.57
2019-04-20T18:16:30.211Z,7.70
2019-04-20T18:21:45.561Z,12.07
2019-04-20T18:24:49.298Z,11.97
2019-04-20T18:27:36.305Z,11.20
2019-04-20T18:30:14.815Z,18.70
2019-04-20T18:32:37.790Z,15.77
2019-04-20T18:38:26.215Z,14.87
2019-04-20T18:41:14.452Z,13.37
2019-04-20T18:43:54.013Z,13.60
2019-04-20T18:46:57.338Z,15.47
2019-04-20T18:49:31.897Z,17.47
2019-04-20T18:51:59.783Z,12.30
2019-04-20T18:54:44.415Z,11.87
2019-04-20T18:57:26.035Z,13.40
2019-04-20T19:00:07.341Z,12.23
2019-04-20T19:02:52.043Z,13.77
2019-04-20T19:05:31.647Z,11.10
2019-04-20T19:08:15.342Z,16.27
2019-04-20T19:11:04.191Z,16.97
2019-04-20T19:13:59.280Z,14.57
2019-04-20T19:16:53.823Z,12.00
2019-04-20T19:19:38.713Z,13.10
2019-04-20T19:22:10.146Z,16.43
2019-04-20T19:24:51.774Z,22.30
2019-04-20T19:27:39.996Z,28.37
2019-04-20T19:30:26.226Z,21.47
2019-04-20T19:33:14.566Z,19.73
2019-04-20T19:35:50.169Z,17.10
2019-04-20T19:38:30.115Z,15.20
2019-04-20T19:41:19.022Z,15.03
2019-04-20T19:43:59.171Z,17.33
2019-04-20T19:46:48.261Z,15.33
2019-04-20T19:49:25.495Z,14.77
2019-04-20T19:52:26.676Z,15.07
2019-04-20T19:54:54.701Z,17.03
2019-04-20T19:57:37.345Z,17.20
2019-04-20T20:00:05.777Z,18.50
2019-04-20T20:02:47.881Z,26.53
2019-04-20T20:05:34.012Z,18.10
2019-04-20T20:08:17.709Z,19.60
2019-04-20T20:10:56.362Z,20.43
2019-04-20T20:13:42.002Z,17.90
2019-04-20T20:16:30.424Z,18.30
2019-04-20T20:19:10.527Z,17.80
2019-04-20T20:22:00.262Z,18.40
2019-04-20T20:24:29.144Z,18.40
2019-04-20T20:27:20.762Z,18.20
2019-04-20T20:30:04.496Z,17.90
2019-04-20T20:32:56.823Z,16.70
2019-04-20T20:35:28.658Z,19.67
2019-04-20T20:38:24.461Z,18.27
2019-04-20T20:41:17.215Z,18.37
2019-04-20T20:44:03.772Z,16.70
2019-04-20T20:46:55.365Z,17.43
2019-04-20T20:50:01.650Z,16.37
2019-04-20T20:52:32.372Z,16.93
2019-04-20T20:55:06.970Z,18.63
2019-04-20T20:57:52.046Z,16.67
2019-04-20T21:00:41.856Z,17.87
2019-04-20T21:03:20.536Z,15.17
2019-04-20T21:05:53.639Z,18.10
2019-04-20T21:08:36.299Z,15.23
2019-04-20T21:11:23.449Z,14.23
2019-04-20T21:14:01.335Z,14.47
2019-04-20T21:16:52.213Z,16.50
2019-04-20T21:19:45.363Z,17.33
2019-04-20T21:22:15.357Z,16.77
2019-04-20T21:25:10.818Z,17.47
2019-04-20T21:27:52.870Z,17.43
2019-04-20T21:30:39.994Z,15.97
2019-04-20T21:33:20.665Z,19.77
2019-04-20T21:36:01.266Z,26.10
2019-04-20T21:38:43.350Z,26.50
2019-04-20T21:41:26.079Z,19.80
2019-04-20T21:44:16.734Z,19.17
2019-04-20T21:46:54.467Z,17.87
2019-04-20T21:49:45.953Z,17.43
2019-04-20T21:52:22.843Z,18.93
2019-04-20T21:54:58.082Z,18.13
2019-04-20T21:57:32.510Z,20.83
2019-04-20T22:00:19.418Z,18.43
2019-04-20T22:02:58.659Z,18.10
2019-04-20T22:05:36.229Z,19.47
2019-04-20T22:08:18.182Z,22.10
2019-04-20T22:10:59.833Z,22.37
2019-04-20T22:13:43.899Z,22.30
2019-04-20T22:16:25.601Z,19.03
2019-04-20T22:19:22.387Z,18.90
2019-04-20T22:22:00.969Z,18.87
2019-04-20T22:24:45.453Z,18.93
2019-04-20T22:27:20.380Z,20.23
2019-04-20T22:29:57.544Z,19.47
2019-04-20T22:32:44.202Z,20.13
2019-04-20T22:35:22.648Z,20.23
2019-04-20T22:38:10.935Z,19.63
2019-04-20T22:40:50.092Z,18.70
2019-04-20T22:43:35.533Z,21.37
2019-04-20T22:46:19.494Z,21.83
2019-04-20T22:49:17.853Z,21.63
2019-04-20T22:51:48.460Z,20.23
2019-04-20T22:54:37.923Z,22.80
2019-04-20T22:57:21.598Z,19.67
2019-04-20T22:59:55.492Z,20.77
2019-04-20T23:02:31.540Z,19.40
2019-04-20T23:05:13.129Z,20.50
2019-04-20T23:07:54.672Z,20.67
2019-04-20T23:10:40.883Z,23.43
2019-04-20T23:13:07.301Z,19.03
2019-04-20T23:15:36.362Z,20.03
2019-04-20T23:18:06.649Z,21.13
2019-04-20T23:21:02.707Z,20.23
2019-04-20T23:23:45.637Z,19.97
2019-04-20T23:26:38.673Z,20.47
2019-04-20T23:29:28.301Z,23.13
2019-04-20T23:32:15.615Z,20.90
2019-04-20T23:35:08.587Z,17.63
2019-04-20T23:37:55.131Z,19.90
2019-04-20T23:40:43.732Z,19.13
2019-04-20T23:43:53.985Z,18.77
2019-04-20T23:52:55.947Z,19.17
2019-04-20T23:55:25.557Z,19.07
2019-04-20T23:58:09.048Z,19.27
